sensor_id;sensor_type;location;lat;lon;timestamp;pressure;altitude;pressure_sealevel;temperature;humidity
62725;BME280;49026;52.600;4.694;2024-02-14T00:01:28;101076.19;;;7.73;100.00
62725;BME280;49026;52.600;4.694;2024-02-14T00:03:55;101052.66;;;7.73;100.00
62725;BME280;49026;52.600;4.694;2024-02-14T00:06:20;101079.66;;;7.75;100.00
62725;BME280;49026;52.600;4.694;2024-02-14T00:08:46;101083.16;;;7.74;100.00
62725;BME280;49026;52.600;4.694;2024-02-14T00:11:11;101063.97;;;7.75;100.00
62725;BME280;49026;52.600;4.694;2024-02-14T00:13:36;101068.28;;;7.76;100.00
62725;BME280;49026;52.600;4.694;2024-02-14T00:16:02;101073.47;;;7.78;100.00
62725;BME280;49026;52.600;4.694;2024-02-14T00:18:27;101051.63;;;7.81;100.00
62725;BME280;49026;52.600;4.694;2024-02-14T00:20:54;101042.84;;;7.82;100.00
62725;BME280;49026;52.600;4.694;2024-02-14T00:23:21;101062.00;;;7.84;100.00
62725;BME280;49026;52.600;4.694;2024-02-14T00:25:46;101075.00;;;7.87;100.00
62725;BME280;49026;52.600;4.694;2024-02-14T00:28:12;101061.03;;;7.88;100.00
62725;BME280;49026;52.600;4.694;2024-02-14T00:30:37;101047.88;;;7.91;100.00
62725;BME280;49026;52.600;4.694;2024-02-14T00:33:02;101061.75;;;7.93;100.00
62725;BME280;49026;52.600;4.694;2024-02-14T00:35:30;101054.75;;;7.93;100.00
62725;BME280;49026;52.600;4.694;2024-02-14T00:37:56;101058.28;;;7.92;100.00
62725;BME280;49026;52.600;4.694;2024-02-14T00:40:24;101059.19;;;7.91;100.00
62725;BME280;49026;52.600;4.694;2024-02-14T00:42:49;101053.09;;;7.91;100.00
62725;BME280;49026;52.600;4.694;2024-02-14T00:45:14;101054.84;;;7.92;100.00
62725;BME280;49026;52.600;4.694;2024-02-14T00:47:40;101067.94;;;7.90;100.00
62725;BME280;49026;52.600;4.694;2024-02-14T00:50:06;101064.44;;;7.90;100.00
62725;BME280;49026;52.600;4.694;2024-02-14T00:52:36;101058.38;;;7.89;100.00
62725;BME280;49026;52.600;4.694;2024-02-14T00:55:03;101062.75;;;7.89;100.00
62725;BME280;49026;52.600;4.694;2024-02-14T00:57:28;101052.31;;;7.87;100.00
62725;BME280;49026;52.600;4.694;2024-02-14T00:59:54;101054.91;;;7.89;100.00
62725;BME280;49026;52.600;4.694;2024-02-14T01:02:21;101070.59;;;7.89;100.00
62725;BME280;49026;52.600;4.694;2024-02-14T01:04:49;101058.34;;;7.91;100.00
62725;BME280;49026;52.600;4.694;2024-02-14T01:07:15;101058.41;;;7.88;100.00
62725;BME280;49026;52.600;4.694;2024-02-14T01:09:43;101061.06;;;7.86;100.00
62725;BME280;49026;52.600;4.694;2024-02-14T01:12:08;101066.28;;;7.86;100.00
62725;BME280;49026;52.600;4.694;2024-02-14T01:14:36;101040.97;;;7.87;100.00
62725;BME280;49026;52.600;4.694;2024-02-14T01:17:01;101058.44;;;7.86;100.00
62725;BME280;49026;52.600;4.694;2024-02-14T01:19:28;101057.59;;;7.86;100.00
62725;BME280;49026;52.600;4.694;2024-02-14T01:21:54;101048.91;;;7.85;100.00
62725;BME280;49026;52.600;4.694;2024-02-14T01:24:20;101074.09;;;7.88;100.00
62725;BME280;49026;52.600;4.694;2024-02-14T01:26:47;101061.81;;;7.91;100.00
62725;BME280;49026;52.600;4.694;2024-02-14T01:29:12;101073.06;;;7.93;100.00
62725;BME280;49026;52.600;4.694;2024-02-14T01:31:40;101072.22;;;7.93;100.00
62725;BME280;49026;52.600;4.694;2024-02-14T01:34:05;101073.97;;;7.94;100.00
62725;BME280;49026;52.600;4.694;2024-02-14T01:36:31;101074.81;;;7.94;100.00
62725;BME280;49026;52.600;4.694;2024-02-14T01:38:56;101069.56;;;7.94;100.00
62725;BME280;49026;52.600;4.694;2024-02-14T01:41:24;101079.22;;;7.92;100.00
62725;BME280;49026;52.600;4.694;2024-02-14T01:43:49;101040.81;;;7.93;100.00
62725;BME280;49026;52.600;4.694;2024-02-14T01:46:15;101082.69;;;7.93;100.00
62725;BME280;49026;52.600;4.694;2024-02-14T01:48:41;101057.38;;;7.93;100.00
62725;BME280;49026;52.600;4.694;2024-02-14T01:51:11;101078.31;;;7.93;100.00
62725;BME280;49026;52.600;4.694;2024-02-14T01:53:38;101080.09;;;7.93;100.00
62725;BME280;49026;52.600;4.694;2024-02-14T01:56:04;101081.81;;;7.94;100.00
62725;BME280;49026;52.600;4.694;2024-02-14T01:58:33;101087.84;;;7.96;100.00
62725;BME280;49026;52.600;4.694;2024-02-14T02:01:01;101089.66;;;7.94;100.00
62725;BME280;49026;52.600;4.694;2024-02-14T02:03:28;101097.50;;;7.94;100.00
62725;BME280;49026;52.600;4.694;2024-02-14T02:05:54;101072.16;;;7.96;100.00
62725;BME280;49026;52.600;4.694;2024-02-14T02:08:20;101100.13;;;7.94;100.00
62725;BME280;49026;52.600;4.694;2024-02-14T02:10:48;101108.78;;;7.96;100.00
62725;BME280;49026;52.600;4.694;2024-02-14T02:13:14;101093.13;;;7.94;100.00
62725;BME280;49026;52.600;4.694;2024-02-14T02:15:41;101114.03;;;7.96;100.00
62725;BME280;49026;52.600;4.694;2024-02-14T02:18:12;101101.81;;;7.95;100.00
62725;BME280;49026;52.600;4.694;2024-02-14T02:20:40;101108.78;;;7.96;100.00
62725;BME280;49026;52.600;4.694;2024-02-14T02:23:08;101096.59;;;7.95;100.00
62725;BME280;49026;52.600;4.694;2024-02-14T02:25:39;101106.22;;;7.94;100.00
62725;BME280;49026;52.600;4.694;2024-02-14T02:28:05;101105.38;;;7.94;100.00
62725;BME280;49026;52.600;4.694;2024-02-14T02:30:30;101103.63;;;7.93;100.00
62725;BME280;49026;52.600;4.694;2024-02-14T02:32:55;101108.88;;;7.93;100.00
62725;BME280;49026;52.600;4.694;2024-02-14T02:35:21;101107.16;;;7.92;100.00
62725;BME280;49026;52.600;4.694;2024-02-14T02:37:49;101108.00;;;7.92;100.00
62725;BME280;49026;52.600;4.694;2024-02-14T02:40:15;101102.78;;;7.92;100.00
62725;BME280;49026;52.600;4.694;2024-02-14T02:42:43;101093.16;;;7.93;100.00
62725;BME280;49026;52.600;4.694;2024-02-14T02:45:10;101102.72;;;7.95;100.00
62725;BME280;49026;52.600;4.694;2024-02-14T02:47:38;101109.66;;;7.96;100.00
62725;BME280;49026;52.600;4.694;2024-02-14T02:50:06;101113.16;;;7.97;100.00
62725;BME280;49026;52.600;4.694;2024-02-14T02:52:33;101117.47;;;7.98;100.00
62725;BME280;49026;52.600;4.694;2024-02-14T02:54:58;101129.66;;;7.99;100.00
62725;BME280;49026;52.600;4.694;2024-02-14T02:57:23;101114.81;;;8.00;100.00
62725;BME280;49026;52.600;4.694;2024-02-14T02:59:51;101118.19;;;8.03;100.00
62725;BME280;49026;52.600;4.694;2024-02-14T03:02:19;101117.31;;;8.04;100.00
62725;BME280;49026;52.600;4.694;2024-02-14T03:14:50;101121.47;;;8.11;100.00
62725;BME280;49026;52.600;4.694;2024-02-14T03:17:15;101117.97;;;8.12;100.00
62725;BME280;49026;52.600;4.694;2024-02-14T03:19:41;101119.66;;;8.15;100.00
62725;BME280;49026;52.600;4.694;2024-02-14T03:22:06;101123.09;;;8.17;100.00
62725;BME280;49026;52.600;4.694;2024-02-14T03:24:33;101123.97;;;8.18;100.00
62725;BME280;49026;52.600;4.694;2024-02-14T03:27:00;101129.13;;;8.21;100.00
62725;BME280;49026;52.600;4.694;2024-02-14T03:29:26;101138.66;;;8.22;100.00
62725;BME280;49026;52.600;4.694;2024-02-14T03:31:55;101132.56;;;8.23;100.00
62725;BME280;49026;52.600;4.694;2024-02-14T03:34:23;101137.78;;;8.23;100.00
62725;BME280;49026;52.600;4.694;2024-02-14T03:36:53;101135.16;;;8.23;100.00
62725;BME280;49026;52.600;4.694;2024-02-14T03:39:18;101143.03;;;8.23;100.00
62725;BME280;49026;52.600;4.694;2024-02-14T03:41:44;101146.53;;;8.22;100.00
62725;BME280;49026;52.600;4.694;2024-02-14T03:44:09;101137.00;;;8.19;100.00
62725;BME280;49026;52.600;4.694;2024-02-14T03:46:34;101150.97;;;8.18;100.00
62725;BME280;49026;52.600;4.694;2024-02-14T03:49:00;101141.41;;;8.19;100.00
62725;BME280;49026;52.600;4.694;2024-02-14T03:51:25;101154.47;;;8.19;100.00
62725;BME280;49026;52.600;4.694;2024-02-14T03:53:51;101133.56;;;8.17;100.00
62725;BME280;49026;52.600;4.694;2024-02-14T03:56:16;101150.97;;;8.18;100.00
62725;BME280;49026;52.600;4.694;2024-02-14T03:58:42;101149.28;;;8.17;100.00
62725;BME280;49026;52.600;4.694;2024-02-14T04:01:07;101155.38;;;8.18;100.00
62725;BME280;49026;52.600;4.694;2024-02-14T04:03:33;101153.56;;;8.20;100.00
62725;BME280;49026;52.600;4.694;2024-02-14T04:06:01;101147.47;;;8.19;100.00
62725;BME280;49026;52.600;4.694;2024-02-14T04:08:27;101169.28;;;8.20;100.00
62725;BME280;49026;52.600;4.694;2024-02-14T04:10:55;101158.81;;;8.20;100.00
62725;BME280;49026;52.600;4.694;2024-02-14T04:13:22;101150.06;;;8.21;100.00
62725;BME280;49026;52.600;4.694;2024-02-14T04:15:48;101167.50;;;8.20;100.00
62725;BME280;49026;52.600;4.694;2024-02-14T04:18:13;101169.28;;;8.20;100.00
62725;BME280;49026;52.600;4.694;2024-02-14T04:20:42;101176.25;;;8.21;100.00
62725;BME280;49026;52.600;4.694;2024-02-14T04:23:11;101177.09;;;8.21;100.00
62725;BME280;49026;52.600;4.694;2024-02-14T04:25:36;101177.09;;;8.21;100.00
62725;BME280;49026;52.600;4.694;2024-02-14T04:28:05;101183.19;;;8.22;100.00
62725;BME280;49026;52.600;4.694;2024-02-14T04:30:30;101176.19;;;8.22;100.00
62725;BME280;49026;52.600;4.694;2024-02-14T04:32:56;101177.94;;;8.22;100.00
62725;BME280;49026;52.600;4.694;2024-02-14T04:35:21;101194.53;;;8.22;100.00
62725;BME280;49026;52.600;4.694;2024-02-14T04:37:46;101182.25;;;8.24;100.00
62725;BME280;49026;52.600;4.694;2024-02-14T04:40:14;101190.16;;;8.23;100.00
62725;BME280;49026;52.600;4.694;2024-02-14T04:42:40;101189.28;;;8.22;100.00
62725;BME280;49026;52.600;4.694;2024-02-14T04:45:09;101183.09;;;8.25;100.00
62725;BME280;49026;52.600;4.694;2024-02-14T04:47:34;101182.22;;;8.26;100.00
62725;BME280;49026;52.600;4.694;2024-02-14T04:49:59;101197.06;;;8.25;100.00
62725;BME280;49026;52.600;4.694;2024-02-14T04:52:26;101185.66;;;8.28;100.00
62725;BME280;49026;52.600;4.694;2024-02-14T04:54:51;101196.94;;;8.30;100.00
62725;BME280;49026;52.600;4.694;2024-02-14T04:57:17;101204.75;;;8.31;100.00
62725;BME280;49026;52.600;4.694;2024-02-14T04:59:44;101202.09;;;8.33;100.00
62725;BME280;49026;52.600;4.694;2024-02-14T05:02:09;101198.59;;;8.34;100.00
62725;BME280;49026;52.600;4.694;2024-02-14T05:04:36;101209.06;;;8.34;100.00
62725;BME280;49026;52.600;4.694;2024-02-14T05:07:03;101212.50;;;8.36;100.00
62725;BME280;49026;52.600;4.694;2024-02-14T05:09:29;101221.19;;;8.38;100.00
62725;BME280;49026;52.600;4.694;2024-02-14T05:11:58;101214.13;;;8.40;100.00
62725;BME280;49026;52.600;4.694;2024-02-14T05:14:24;101219.34;;;8.43;100.00
62725;BME280;49026;52.600;4.694;2024-02-14T05:16:49;101208.81;;;8.45;100.00
62725;BME280;49026;52.600;4.694;2024-02-14T05:19:15;101210.50;;;8.47;100.00
62725;BME280;49026;52.600;4.694;2024-02-14T05:21:40;101213.94;;;8.49;100.00
62725;BME280;49026;52.600;4.694;2024-02-14T05:24:05;101215.56;;;8.53;100.00
62725;BME280;49026;52.600;4.694;2024-02-14T05:26:33;101214.66;;;8.56;100.00
62725;BME280;49026;52.600;4.694;2024-02-14T05:29:03;101219.88;;;8.56;100.00
62725;BME280;49026;52.600;4.694;2024-02-14T05:31:43;101219.94;;;8.55;100.00
62725;BME280;49026;52.600;4.694;2024-02-14T05:34:09;101213.88;;;8.52;100.00
62725;BME280;49026;52.600;4.694;2024-02-14T05:36:35;101227.00;;;8.51;100.00
62725;BME280;49026;52.600;4.694;2024-02-14T05:39:05;101220.03;;;8.50;100.00
62725;BME280;49026;52.600;4.694;2024-02-14T05:41:36;101224.44;;;8.49;100.00
62725;BME280;49026;52.600;4.694;2024-02-14T05:44:02;101235.72;;;8.51;100.00
62725;BME280;49026;52.600;4.694;2024-02-14T05:46:27;101226.16;;;8.50;100.00
62725;BME280;49026;52.600;4.694;2024-02-14T05:48:57;101230.47;;;8.51;100.00
62725;BME280;49026;52.600;4.694;2024-02-14T05:51:23;101240.09;;;8.51;100.00
62725;BME280;49026;52.600;4.694;2024-02-14T05:53:49;101244.50;;;8.50;100.00
62725;BME280;49026;52.600;4.694;2024-02-14T05:56:16;101247.88;;;8.54;100.00
62725;BME280;49026;52.600;4.694;2024-02-14T05:58:44;101245.28;;;8.54;100.00
62725;BME280;49026;52.600;4.694;2024-02-14T06:01:09;101253.16;;;8.52;100.00
62725;BME280;49026;52.600;4.694;2024-02-14T06:03:35;101259.25;;;8.53;100.00
62725;BME280;49026;52.600;4.694;2024-02-14T06:06:00;101257.47;;;8.53;100.00
62725;BME280;49026;52.600;4.694;2024-02-14T06:08:25;101257.59;;;8.50;100.00
62725;BME280;49026;52.600;4.694;2024-02-14T06:10:52;101267.22;;;8.48;100.00
62725;BME280;49026;52.600;4.694;2024-02-14T06:13:17;101270.78;;;8.46;100.00
62725;BME280;49026;52.600;4.694;2024-02-14T06:15:42;101267.34;;;8.44;100.00
62725;BME280;49026;52.600;4.694;2024-02-14T06:18:08;101249.94;;;8.40;100.00
62725;BME280;49026;52.600;4.694;2024-02-14T06:20:33;101273.50;;;8.40;100.00
62725;BME280;49026;52.600;4.694;2024-02-14T06:22:58;101270.03;;;8.39;100.00
62725;BME280;49026;52.600;4.694;2024-02-14T06:25:26;101273.47;;;8.41;100.00
62725;BME280;49026;52.600;4.694;2024-02-14T06:27:53;101277.84;;;8.42;100.00
62725;BME280;49026;52.600;4.694;2024-02-14T06:30:23;101275.22;;;8.42;100.00
62725;BME280;49026;52.600;4.694;2024-02-14T06:32:49;101274.25;;;8.46;100.00
62725;BME280;49026;52.600;4.694;2024-02-14T06:35:16;101287.34;;;8.46;100.00
62725;BME280;49026;52.600;4.694;2024-02-14T06:37:44;101297.78;;;8.48;100.00
62725;BME280;49026;52.600;4.694;2024-02-14T06:40:13;101283.78;;;8.50;100.00
62725;BME280;49026;52.600;4.694;2024-02-14T06:42:38;101286.41;;;8.50;100.00
62725;BME280;49026;52.600;4.694;2024-02-14T06:45:03;101288.91;;;8.53;100.00
62725;BME280;49026;52.600;4.694;2024-02-14T06:47:29;101280.13;;;8.56;100.00
62725;BME280;49026;52.600;4.694;2024-02-14T06:50:00;101295.84;;;8.56;100.00
62725;BME280;49026;52.600;4.694;2024-02-14T06:52:26;101295.88;;;8.55;100.00
62725;BME280;49026;52.600;4.694;2024-02-14T06:54:51;101298.53;;;8.53;100.00
62725;BME280;49026;52.600;4.694;2024-02-14T06:57:16;101288.91;;;8.53;100.00
62725;BME280;49026;52.600;4.694;2024-02-14T06:59:45;101306.38;;;8.55;100.00
62725;BME280;49026;52.600;4.694;2024-02-14T07:02:10;101306.28;;;8.58;100.00
62725;BME280;49026;52.600;4.694;2024-02-14T07:04:35;101288.78;;;8.60;100.00
62725;BME280;49026;52.600;4.694;2024-02-14T07:07:02;101311.47;;;8.61;100.00
62725;BME280;49026;52.600;4.694;2024-02-14T07:09:27;101310.56;;;8.62;100.00
62725;BME280;49026;52.600;4.694;2024-02-14T07:11:54;101307.94;;;8.62;100.00
62725;BME280;49026;52.600;4.694;2024-02-14T07:14:21;101304.41;;;8.63;100.00
62725;BME280;49026;52.600;4.694;2024-02-14T07:16:46;101324.50;;;8.64;100.00
62725;BME280;49026;52.600;4.694;2024-02-14T07:19:12;101327.13;;;8.64;100.00
62725;BME280;49026;52.600;4.694;2024-02-14T07:21:40;101317.50;;;8.64;100.00
62725;BME280;49026;52.600;4.694;2024-02-14T07:24:05;101321.00;;;8.63;100.00
62725;BME280;49026;52.600;4.694;2024-02-14T07:26:31;101326.25;;;8.62;100.00
62725;BME280;49026;52.600;4.694;2024-02-14T07:28:59;101328.03;;;8.61;100.00
62725;BME280;49026;52.600;4.694;2024-02-14T07:31:28;101320.22;;;8.60;100.00
62725;BME280;49026;52.600;4.694;2024-02-14T07:33:55;101322.81;;;8.60;100.00
62725;BME280;49026;52.600;4.694;2024-02-14T07:36:22;101326.38;;;8.59;100.00
62725;BME280;49026;52.600;4.694;2024-02-14T07:38:48;101329.84;;;8.59;100.00
62725;BME280;49026;52.600;4.694;2024-02-14T07:41:16;101341.06;;;8.64;100.00
62725;BME280;49026;52.600;4.694;2024-02-14T07:43:41;101342.81;;;8.65;100.00
62725;BME280;49026;52.600;4.694;2024-02-14T07:46:07;101334.13;;;8.62;100.00
62725;BME280;49026;52.600;4.694;2024-02-14T07:48:33;101329.84;;;8.59;100.00
62725;BME280;49026;52.600;4.694;2024-02-14T07:50:58;101346.47;;;8.57;100.00
62725;BME280;49026;52.600;4.694;2024-02-14T07:53:24;101348.28;;;8.55;100.00
62725;BME280;49026;52.600;4.694;2024-02-14T07:55:50;101352.69;;;8.52;100.00
62725;BME280;49026;52.600;4.694;2024-02-14T07:58:16;101351.78;;;8.53;100.00
62725;BME280;49026;52.600;4.694;2024-02-14T08:00:41;101353.47;;;8.56;100.00
62725;BME280;49026;52.600;4.694;2024-02-14T08:03:06;101354.31;;;8.58;100.00
62725;BME280;49026;52.600;4.694;2024-02-14T08:05:34;101349.84;;;8.62;100.00
62725;BME280;49026;52.600;4.694;2024-02-14T08:07:59;101360.31;;;8.62;100.00
62725;BME280;49026;52.600;4.694;2024-02-14T08:10:24;101364.66;;;8.64;100.00
62725;BME280;49026;52.600;4.694;2024-02-14T08:12:50;101363.75;;;8.65;100.00
62725;BME280;49026;52.600;4.694;2024-02-14T08:15:15;101356.72;;;8.67;100.00
62725;BME280;49026;52.600;4.694;2024-02-14T08:17:41;101358.38;;;8.70;100.00
62725;BME280;49026;52.600;4.694;2024-02-14T08:20:06;101356.63;;;8.72;100.00
62725;BME280;49026;52.600;4.694;2024-02-14T08:22:35;101364.34;;;8.77;100.00
62725;BME280;49026;52.600;4.694;2024-02-14T08:25:00;101357.34;;;8.77;100.00
62725;BME280;49026;52.600;4.694;2024-02-14T08:27:25;101356.44;;;8.78;100.00
62725;BME280;49026;52.600;4.694;2024-02-14T08:29:55;101363.38;;;8.81;100.00
62725;BME280;49026;52.600;4.694;2024-02-14T08:32:22;101360.69;;;8.84;100.00
62725;BME280;49026;52.600;4.694;2024-02-14T08:34:48;101351.00;;;8.87;100.00
62725;BME280;49026;52.600;4.694;2024-02-14T08:37:15;101344.81;;;8.88;100.00
62725;BME280;49026;52.600;4.694;2024-02-14T08:39:41;101350.88;;;8.92;100.00
62725;BME280;49026;52.600;4.694;2024-02-14T08:42:06;101350.91;;;8.90;100.00
62725;BME280;49026;52.600;4.694;2024-02-14T08:44:35;101350.91;;;8.90;100.00
62725;BME280;49026;52.600;4.694;2024-02-14T08:47:02;101357.09;;;8.88;100.00
62725;BME280;49026;52.600;4.694;2024-02-14T08:49:28;101354.50;;;8.86;100.00
62725;BME280;49026;52.600;4.694;2024-02-14T08:51:53;101371.19;;;8.84;100.00
62725;BME280;49026;52.600;4.694;2024-02-14T08:54:19;101365.00;;;8.85;100.00
62725;BME280;49026;52.600;4.694;2024-02-14T08:56:48;101378.13;;;8.85;100.00
62725;BME280;49026;52.600;4.694;2024-02-14T08:59:14;101373.81;;;8.82;100.00
62725;BME280;49026;52.600;4.694;2024-02-14T09:01:39;101361.56;;;8.83;100.00
62725;BME280;49026;52.600;4.694;2024-02-14T09:04:07;101359.84;;;8.82;100.00
62725;BME280;49026;52.600;4.694;2024-02-14T09:06:32;101370.28;;;8.83;100.00
62725;BME280;49026;52.600;4.694;2024-02-14T09:08:58;101339.63;;;8.87;100.00
62725;BME280;49026;52.600;4.694;2024-02-14T09:11:23;101369.25;;;8.90;100.00
62725;BME280;49026;52.600;4.694;2024-02-14T09:13:48;101358.78;;;8.90;100.00
62725;BME280;49026;52.600;4.694;2024-02-14T09:16:16;101378.88;;;8.90;100.00
62725;BME280;49026;52.600;4.694;2024-02-14T09:18:42;101378.81;;;8.92;100.00
62725;BME280;49026;52.600;4.694;2024-02-14T09:21:12;101365.69;;;8.93;100.00
62725;BME280;49026;52.600;4.694;2024-02-14T09:23:39;101367.34;;;8.97;100.00
62725;BME280;49026;52.600;4.694;2024-02-14T09:26:05;101380.31;;;9.02;100.00
62725;BME280;49026;52.600;4.694;2024-02-14T09:28:30;101368.94;;;9.03;100.00
62725;BME280;49026;52.600;4.694;2024-02-14T09:30:58;101377.66;;;9.03;100.00
62725;BME280;49026;52.600;4.694;2024-02-14T09:33:23;101362.81;;;9.04;100.00
62725;BME280;49026;52.600;4.694;2024-02-14T09:35:48;101360.97;;;9.07;100.00
62725;BME280;49026;52.600;4.694;2024-02-14T09:38:19;101376.59;;;9.12;100.00
62725;BME280;49026;52.600;4.694;2024-02-14T09:40:45;101364.22;;;9.17;100.00
62725;BME280;49026;52.600;4.694;2024-02-14T09:43:24;101372.88;;;9.21;100.00
62725;BME280;49026;52.600;4.694;2024-02-14T09:45:53;101377.06;;;9.26;100.00
62725;BME280;49026;52.600;4.694;2024-02-14T09:48:21;101377.78;;;9.33;100.00
62725;BME280;49026;52.600;4.694;2024-02-14T09:50:48;101385.56;;;9.36;100.00
62725;BME280;49026;52.600;4.694;2024-02-14T09:53:14;101385.47;;;9.41;100.00
62725;BME280;49026;52.600;4.694;2024-02-14T09:55:41;101385.34;;;9.45;100.00
62725;BME280;49026;52.600;4.694;2024-02-14T09:58:06;101396.59;;;9.49;100.00
62725;BME280;49026;52.600;4.694;2024-02-14T10:00:35;101398.22;;;9.53;100.00
62725;BME280;49026;52.600;4.694;2024-02-14T10:03:04;101389.47;;;9.54;100.00
62725;BME280;49026;52.600;4.694;2024-02-14T10:05:31;101387.75;;;9.53;100.00
62725;BME280;49026;52.600;4.694;2024-02-14T10:07:57;101393.03;;;9.52;100.00
62725;BME280;49026;52.600;4.694;2024-02-14T10:10:26;101398.47;;;9.45;100.00
62725;BME280;49026;52.600;4.694;2024-02-14T10:12:54;101402.13;;;9.38;100.00
62725;BME280;49026;52.600;4.694;2024-02-14T10:15:20;101394.38;;;9.34;100.00
62725;BME280;49026;52.600;4.694;2024-02-14T10:17:45;101397.16;;;9.27;100.00
62725;BME280;49026;52.600;4.694;2024-02-14T10:20:17;101401.59;;;9.25;100.00
62725;BME280;49026;52.600;4.694;2024-02-14T10:22:42;101394.50;;;9.29;100.00
62725;BME280;49026;52.600;4.694;2024-02-14T10:25:12;101404.84;;;9.34;100.00
62725;BME280;49026;52.600;4.694;2024-02-14T10:27:42;101403.13;;;9.34;100.00
62725;BME280;49026;52.600;4.694;2024-02-14T10:30:08;101409.25;;;9.33;100.00
62725;BME280;49026;52.600;4.694;2024-02-14T10:32:37;101405.69;;;9.36;100.00
62725;BME280;49026;52.600;4.694;2024-02-14T10:35:06;101409.91;;;9.41;100.00
62725;BME280;49026;52.600;4.694;2024-02-14T10:37:34;101395.03;;;9.42;100.00
62725;BME280;49026;52.600;4.694;2024-02-14T10:40:02;101416.94;;;9.41;100.00
62725;BME280;49026;52.600;4.694;2024-02-14T10:42:31;101419.38;;;9.47;100.00
62725;BME280;49026;52.600;4.694;2024-02-14T10:44:57;101408.81;;;9.50;100.00
62725;BME280;49026;52.600;4.694;2024-02-14T10:47:29;101408.75;;;9.52;100.00
62725;BME280;49026;52.600;4.694;2024-02-14T10:49:57;101416.59;;;9.53;100.00
62725;BME280;49026;52.600;4.694;2024-02-14T10:52:28;101425.44;;;9.51;100.00
62725;BME280;49026;52.600;4.694;2024-02-14T10:54:56;101408.03;;;9.46;100.00
62725;BME280;49026;52.600;4.694;2024-02-14T10:57:24;101431.69;;;9.45;100.00
62725;BME280;49026;52.600;4.694;2024-02-14T10:59:51;101428.25;;;9.43;100.00
62725;BME280;49026;52.600;4.694;2024-02-14T11:02:17;101431.75;;;9.42;100.00
62725;BME280;49026;52.600;4.694;2024-02-14T11:04:45;101425.63;;;9.43;100.00
62725;BME280;49026;52.600;4.694;2024-02-14T11:07:10;101417.75;;;9.43;100.00
62725;BME280;49026;52.600;4.694;2024-02-14T11:09:36;101377.50;;;9.44;100.00
62725;BME280;49026;52.600;4.694;2024-02-14T11:12:07;101423.81;;;9.45;100.00
62725;BME280;49026;52.600;4.694;2024-02-14T11:14:36;101420.25;;;9.48;100.00
62725;BME280;49026;52.600;4.694;2024-02-14T11:17:12;101429.78;;;9.50;100.00
62725;BME280;49026;52.600;4.694;2024-02-14T11:19:38;101409.69;;;9.51;100.00
62725;BME280;49026;52.600;4.694;2024-02-14T11:22:18;101405.22;;;9.54;100.00
62725;BME280;49026;52.600;4.694;2024-02-14T11:24:50;101411.19;;;9.59;100.00
62725;BME280;49026;52.600;4.694;2024-02-14T11:27:18;101403.09;;;9.67;100.00
62725;BME280;49026;52.600;4.694;2024-02-14T11:29:52;101402.97;;;9.72;100.00
62725;BME280;49026;52.600;4.694;2024-02-14T11:32:18;101406.41;;;9.74;100.00
62725;BME280;49026;52.600;4.694;2024-02-14T11:34:56;101403.72;;;9.77;100.00
62725;BME280;49026;52.600;4.694;2024-02-14T11:37:29;101388.59;;;9.85;100.00
62725;BME280;49026;52.600;4.694;2024-02-14T11:39:56;101395.56;;;9.88;100.00
62725;BME280;49026;52.600;4.694;2024-02-14T11:42:23;101393.78;;;9.88;100.00
62725;BME280;49026;52.600;4.694;2024-02-14T11:44:48;101397.22;;;9.90;100.00
62725;BME280;49026;52.600;4.694;2024-02-14T11:47:16;101404.19;;;9.91;100.00
62725;BME280;49026;52.600;4.694;2024-02-14T11:49:42;101411.94;;;9.96;100.00
62725;BME280;49026;52.600;4.694;2024-02-14T11:52:17;101403.91;;;10.00;100.00
62725;BME280;49026;52.600;4.694;2024-02-14T11:54:46;101411.66;;;10.05;100.00
62725;BME280;49026;52.600;4.694;2024-02-14T11:57:16;101407.28;;;10.06;100.00
62725;BME280;49026;52.600;4.694;2024-02-14T11:59:42;101408.16;;;10.06;100.00
62725;BME280;49026;52.600;4.694;2024-02-14T12:02:07;101390.66;;;10.05;100.00
62725;BME280;49026;52.600;4.694;2024-02-14T12:04:32;101409.94;;;10.06;100.00
62725;BME280;49026;52.600;4.694;2024-02-14T12:06:58;101396.78;;;10.06;100.00
62725;BME280;49026;52.600;4.694;2024-02-14T12:09:26;101409.09;;;10.04;100.00
62725;BME280;49026;52.600;4.694;2024-02-14T12:11:54;101404.84;;;9.99;100.00
62725;BME280;49026;52.600;4.694;2024-02-14T12:14:23;101430.38;;;9.94;100.00
62725;BME280;49026;52.600;4.694;2024-02-14T12:16:50;101413.88;;;9.89;100.00
62725;BME280;49026;52.600;4.694;2024-02-14T12:19:18;101409.66;;;9.83;100.00
62725;BME280;49026;52.600;4.694;2024-02-14T12:21:44;101396.69;;;9.79;100.00
62725;BME280;49026;52.600;4.694;2024-02-14T12:24:10;101395.03;;;9.75;100.00
62725;BME280;49026;52.600;4.694;2024-02-14T12:26:39;101402.06;;;9.74;100.00
62725;BME280;49026;52.600;4.694;2024-02-14T12:29:06;101407.28;;;9.74;100.00
62725;BME280;49026;52.600;4.694;2024-02-14T12:31:35;101409.88;;;9.76;100.00
62725;BME280;49026;52.600;4.694;2024-02-14T12:34:02;101394.94;;;9.78;100.00
62725;BME280;49026;52.600;4.694;2024-02-14T12:36:30;101382.75;;;9.75;100.00
62725;BME280;49026;52.600;4.694;2024-02-14T12:38:58;101401.25;;;9.72;100.00
62725;BME280;49026;52.600;4.694;2024-02-14T12:41:23;101401.34;;;9.68;100.00
62725;BME280;49026;52.600;4.694;2024-02-14T12:43:50;101394.44;;;9.63;100.00
62725;BME280;49026;52.600;4.694;2024-02-14T12:46:16;101398.94;;;9.60;100.00
62725;BME280;49026;52.600;4.694;2024-02-14T12:48:41;101390.25;;;9.58;100.00
62725;BME280;49026;52.600;4.694;2024-02-14T12:51:07;101387.66;;;9.56;100.00
62725;BME280;49026;52.600;4.694;2024-02-14T12:53:33;101385.94;;;9.55;100.00
62725;BME280;49026;52.600;4.694;2024-02-14T12:55:58;101385.84;;;9.58;100.00
62725;BME280;49026;52.600;4.694;2024-02-14T12:58:24;101381.34;;;9.63;100.00